Time;durP1;ratioP1;P1;durP2;ratioP2;P2;SDS_P1;SDS_P2;PMS_P1;PMS_P2;Temp;Humidity;BMP_temperature;BMP_pressure;BME280_temperature;BME280_humidity;BME280_pressure;Samples;Min_cycle;Max_cycle;Signal;HPM_P1;HPM_P2
2021/07/31 00:01:38;;;;;;;7.93;3.53;;;14.80;99.90;;;;;;5141120;27;20062;-81
2021/07/31 00:04:05;;;;;;;5.63;3.42;;;14.80;99.90;;;;;;5121323;27;20125;-81
2021/07/31 00:06:31;;;;;;;7.93;3.53;;;14.90;99.90;;;;;;5133864;27;20066;-79
2021/07/31 00:08:57;;;;;;;8.00;3.67;;;14.90;99.90;;;;;;5121017;27;20086;-78
2021/07/31 00:11:23;;;;;;;8.63;3.40;;;15.00;99.90;;;;;;5133532;27;20038;-78
2021/07/31 00:13:49;;;;;;;9.43;3.80;;;15.00;99.90;;;;;;5134607;27;20114;-82
2021/07/31 00:16:14;;;;;;;7.70;3.72;;;15.00;99.90;;;;;;5134066;27;20039;-78
2021/07/31 00:18:40;;;;;;;7.35;3.67;;;14.90;99.90;;;;;;5134064;27;20043;-80
2021/07/31 00:21:08;;;;;;;;;;;15.00;99.90;;;;;;5133794;27;20496;-80
2021/07/31 00:23:33;;;;;;;;;;;15.00;99.90;;;;;;5134130;27;19915;-82
2021/07/31 00:25:59;;;;;;;6.57;3.67;;;15.00;99.90;;;;;;5135021;27;19923;-77
2021/07/31 00:28:25;;;;;;;6.15;3.78;;;15.00;99.90;;;;;;5136892;27;20053;-78
2021/07/31 00:30:51;;;;;;;;;;;15.00;99.90;;;;;;5135658;27;20031;-80
2021/07/31 00:33:17;;;;;;;7.05;4.15;;;15.00;99.90;;;;;;5118076;27;20368;-81
2021/07/31 00:35:43;;;;;;;8.43;4.90;;;15.00;99.90;;;;;;5134083;27;20393;-82
2021/07/31 00:38:09;;;;;;;10.68;4.90;;;15.00;99.90;;;;;;5133913;27;20499;-81
2021/07/31 00:40:35;;;;;;;7.15;4.07;;;15.00;99.90;;;;;;5133836;27;20042;-80
2021/07/31 00:43:06;;;;;;;6.93;4.53;;;15.00;99.90;;;;;;5133633;27;20032;-79
2021/07/31 00:45:32;;;;;;;6.97;4.50;;;15.00;99.90;;;;;;5133446;27;20392;-78
2021/07/31 00:47:58;;;;;;;8.52;4.88;;;14.90;99.90;;;;;;5119879;27;20046;-79
2021/07/31 00:50:24;;;;;;;10.23;4.53;;;15.00;99.90;;;;;;5134037;27;20031;-81
2021/07/31 00:52:51;;;;;;;7.45;4.70;;;14.90;99.90;;;;;;5133938;27;20035;-78
2021/07/31 00:55:17;;;;;;;9.50;5.35;;;14.90;99.90;;;;;;5127233;27;20536;-78
2021/07/31 00:57:45;;;;;;;;;;;15.00;99.90;;;;;;5132685;27;20031;-81
2021/07/31 01:00:12;;;;;;;8.55;4.88;;;14.90;99.90;;;;;;5133807;27;19977;-77
2021/07/31 01:02:38;;;;;;;9.00;4.95;;;14.90;99.90;;;;;;5130770;27;20067;-79
2021/07/31 01:05:05;;;;;;;7.85;5.25;;;14.90;99.90;;;;;;5133713;27;20112;-77
2021/07/31 01:07:34;;;;;;;12.80;4.88;;;14.90;99.90;;;;;;5125086;27;20043;-79
2021/07/31 01:10:00;;;;;;;7.60;4.82;;;14.80;99.90;;;;;;5128244;27;20039;-80
2021/07/31 01:12:26;;;;;;;13.57;5.18;;;14.80;99.90;;;;;;5132646;27;20041;-78
2021/07/31 01:14:51;;;;;;;;;;;14.80;99.90;;;;;;5132646;27;20066;-81
2021/07/31 01:17:17;;;;;;;8.52;4.78;;;14.80;99.90;;;;;;5131697;27;19919;-80
2021/07/31 01:19:43;;;;;;;;;;;14.90;99.90;;;;;;5134082;27;20046;-78
2021/07/31 01:22:09;;;;;;;8.73;5.50;;;14.80;99.90;;;;;;5133382;27;19964;-80
2021/07/31 01:24:34;;;;;;;;;;;14.80;99.90;;;;;;5124559;27;20503;-81
2021/07/31 01:27:00;;;;;;;7.03;5.07;;;14.80;99.90;;;;;;5123249;27;19966;-79
2021/07/31 01:29:26;;;;;;;7.57;5.65;;;14.80;99.90;;;;;;5127612;27;20043;-79
2021/07/31 01:31:52;;;;;;;10.45;6.53;;;14.70;99.90;;;;;;5131747;27;20125;-79
2021/07/31 01:34:17;;;;;;;12.57;6.18;;;14.60;99.90;;;;;;5133100;27;20043;-79
2021/07/31 01:36:43;;;;;;;10.20;6.20;;;14.60;99.90;;;;;;5133277;27;20464;-82
2021/07/31 01:39:09;;;;;;;9.45;5.88;;;14.60;99.90;;;;;;5133642;27;20110;-80
2021/07/31 01:41:36;;;;;;;10.68;6.65;;;14.60;99.90;;;;;;5132309;27;20066;-82
2021/07/31 01:44:02;;;;;;;7.50;5.88;;;14.60;99.90;;;;;;5133038;27;20515;-78
2021/07/31 01:46:28;;;;;;;11.50;6.55;;;14.60;99.90;;;;;;5130983;27;20051;-80
2021/07/31 01:48:54;;;;;;;10.48;6.07;;;14.60;99.90;;;;;;5133008;27;20035;-78
2021/07/31 01:51:19;;;;;;;15.27;6.35;;;14.60;99.90;;;;;;5133673;27;20137;-78
2021/07/31 01:53:45;;;;;;;;;;;14.60;99.90;;;;;;5132117;27;20473;-78
2021/07/31 01:56:12;;;;;;;12.30;6.50;;;14.60;99.90;;;;;;5132301;27;20317;-81
2021/07/31 01:58:38;;;;;;;11.38;6.60;;;14.60;99.90;;;;;;5131372;27;20119;-77
2021/07/31 02:01:05;;;;;;;11.52;6.80;;;14.60;99.90;;;;;;5133266;27;20040;-77
2021/07/31 02:03:30;;;;;;;12.35;6.35;;;14.70;99.90;;;;;;5129420;27;20031;-81
2021/07/31 02:05:56;;;;;;;12.68;7.28;;;14.70;99.90;;;;;;5133113;27;20035;-80
2021/07/31 02:08:22;;;;;;;;;;;14.80;99.90;;;;;;5129482;27;20063;-78
2021/07/31 02:10:48;;;;;;;13.68;6.70;;;14.80;99.90;;;;;;5132844;27;19966;-77
2021/07/31 02:13:14;;;;;;;15.00;6.82;;;14.80;99.90;;;;;;5131932;27;20114;-77
2021/07/31 02:15:44;;;;;;;12.10;7.05;;;14.80;99.90;;;;;;5133004;27;20051;-79
2021/07/31 02:18:10;;;;;;;10.13;7.55;;;14.80;99.90;;;;;;5132485;27;20114;-80
2021/07/31 02:20:37;;;;;;;13.80;7.47;;;14.80;99.90;;;;;;5132336;27;20437;-78
2021/07/31 02:23:04;;;;;;;10.15;7.10;;;14.80;99.90;;;;;;5131088;27;20034;-81
2021/07/31 02:25:29;;;;;;;10.10;7.28;;;14.70;99.90;;;;;;5124068;27;20039;-80
2021/07/31 02:27:55;;;;;;;13.13;7.78;;;14.80;99.90;;;;;;5130670;27;20177;-78
2021/07/31 02:30:22;;;;;;;13.80;7.90;;;14.80;99.90;;;;;;5131292;27;20031;-79
2021/07/31 02:32:47;;;;;;;14.23;8.32;;;14.90;99.90;;;;;;5132222;27;20064;-78
2021/07/31 02:35:13;;;;;;;16.38;8.25;;;15.00;99.90;;;;;;5132266;28;20039;-77
2021/07/31 02:37:39;;;;;;;13.15;7.57;;;15.00;99.90;;;;;;5130773;28;20118;-79
2021/07/31 02:40:06;;;;;;;15.10;7.82;;;15.00;99.90;;;;;;5132780;27;20392;-80
2021/07/31 02:42:32;;;;;;;14.18;8.40;;;15.00;99.90;;;;;;5099265;28;20063;-81
2021/07/31 02:45:02;;;;;;;17.98;8.80;;;15.00;99.90;;;;;;5132559;27;20074;-78
2021/07/31 02:47:29;;;;;;;13.65;7.90;;;15.10;99.90;;;;;;5130914;27;20062;-77
2021/07/31 02:49:56;;;;;;;10.43;8.10;;;15.00;99.90;;;;;;5134803;27;20110;-80
2021/07/31 02:52:22;;;;;;;13.40;8.40;;;15.10;99.90;;;;;;5135318;27;20035;-78
2021/07/31 02:54:49;;;;;;;12.02;8.35;;;15.00;99.90;;;;;;5124123;28;20043;-79
2021/07/31 02:57:15;;;;;;;13.77;8.68;;;15.10;99.90;;;;;;5130894;27;20035;-78
2021/07/31 02:59:41;;;;;;;12.98;8.48;;;15.10;99.90;;;;;;5132882;28;20091;-81
2021/07/31 03:02:07;;;;;;;12.15;8.32;;;15.00;99.90;;;;;;5130150;28;20524;-79
2021/07/31 03:04:33;;;;;;;18.88;8.80;;;15.00;99.90;;;;;;5130359;28;20134;-79
2021/07/31 03:06:59;;;;;;;;;;;15.00;99.90;;;;;;5128340;27;20112;-82
2021/07/31 03:09:28;;;;;;;14.10;8.50;;;15.00;99.90;;;;;;5122184;28;19923;-81
2021/07/31 03:11:54;;;;;;;18.70;10.15;;;15.00;99.90;;;;;;5131925;28;20482;-82
2021/07/31 03:14:20;;;;;;;12.57;9.60;;;15.00;99.90;;;;;;5131609;28;20031;-80
2021/07/31 03:16:45;;;;;;;13.60;8.98;;;15.00;99.90;;;;;;5130093;28;20463;-82
2021/07/31 03:19:11;;;;;;;14.05;9.93;;;15.00;99.90;;;;;;5132205;28;20028;-80
2021/07/31 03:21:37;;;;;;;17.58;9.70;;;15.00;99.90;;;;;;5131391;28;20039;-80
2021/07/31 03:24:03;;;;;;;15.10;9.52;;;15.10;99.90;;;;;;5131939;28;20027;-81
2021/07/31 03:26:31;;;;;;;22.60;10.93;;;15.00;99.90;;;;;;5131579;28;20061;-78
2021/07/31 03:28:57;;;;;;;15.63;10.13;;;15.00;99.90;;;;;;5134449;27;20069;-81
2021/07/31 03:31:23;;;;;;;16.92;11.35;;;14.90;99.90;;;;;;5133282;27;20039;-77
2021/07/31 03:33:49;;;;;;;19.52;11.45;;;14.90;99.90;;;;;;5130033;28;20533;-81
2021/07/31 03:36:15;;;;;;;15.18;11.05;;;14.90;99.90;;;;;;5130815;28;20039;-78
2021/07/31 03:38:41;;;;;;;;;;;14.90;99.90;;;;;;5132064;27;20054;-81
2021/07/31 03:41:06;;;;;;;17.25;10.45;;;14.80;99.90;;;;;;5133997;27;19919;-80
2021/07/31 03:43:32;;;;;;;;;;;14.80;99.90;;;;;;5133594;27;20369;-79
2021/07/31 03:45:58;;;;;;;14.80;11.00;;;14.80;99.90;;;;;;5135139;27;20014;-80
2021/07/31 03:48:24;;;;;;;16.70;10.82;;;14.90;99.90;;;;;;5132777;27;20039;-80
2021/07/31 03:50:50;;;;;;;19.92;10.90;;;14.90;99.90;;;;;;5133334;27;20069;-80
2021/07/31 03:53:15;;;;;;;19.75;11.77;;;14.90;99.90;;;;;;5133973;27;20035;-80
2021/07/31 03:55:48;;;;;;;19.45;12.32;;;14.90;99.90;;;;;;5135105;27;20412;-82
2021/07/31 03:58:15;;;;;;;18.85;11.27;;;14.90;99.90;;;;;;5136822;27;20042;-81
2021/07/31 04:00:41;;;;;;;17.20;10.88;;;14.90;99.90;;;;;;5134613;27;20039;-83
2021/07/31 04:03:11;;;;;;;17.73;11.73;;;14.90;99.90;;;;;;5133562;27;20043;-82
2021/07/31 04:05:40;;;;;;;15.57;11.43;;;14.90;99.90;;;;;;5134375;27;20434;-83
2021/07/31 04:08:06;;;;;;;19.88;10.90;;;14.90;99.90;;;;;;5120254;27;20373;-79
2021/07/31 04:10:34;;;;;;;19.33;11.45;;;14.90;99.90;;;;;;5133823;27;20035;-80
2021/07/31 04:13:00;;;;;;;18.02;10.48;;;14.90;99.90;;;;;;5134602;27;20114;-83
2021/07/31 04:15:28;;;;;;;17.27;11.38;;;14.90;99.90;;;;;;5133615;27;20039;-83
2021/07/31 04:17:54;;;;;;;16.35;10.98;;;15.00;99.90;;;;;;5133620;27;20437;-81
2021/07/31 04:20:20;;;;;;;15.45;10.25;;;14.90;99.90;;;;;;5133557;27;20611;-81
2021/07/31 04:22:47;;;;;;;16.13;9.30;;;15.00;99.90;;;;;;5134109;27;20043;-83
2021/07/31 04:25:13;;;;;;;14.95;9.98;;;15.00;99.90;;;;;;5125001;27;20529;-81
2021/07/31 04:27:39;;;;;;;17.88;10.00;;;15.10;99.90;;;;;;5135432;27;20067;-79
2021/07/31 04:30:06;;;;;;;16.85;9.63;;;15.00;99.90;;;;;;5138743;27;20068;-86
2021/07/31 04:32:35;;;;;;;17.75;9.23;;;15.00;99.90;;;;;;5135719;27;20035;-81
2021/07/31 04:35:17;;;;;;;19.17;9.05;;;15.00;99.90;;;;;;5137085;27;20047;-81
2021/07/31 04:37:43;;;;;;;19.30;9.02;;;15.00;99.90;;;;;;5135931;27;20042;-81
2021/07/31 04:40:10;;;;;;;18.73;10.02;;;15.00;99.90;;;;;;5137696;27;20031;-81
2021/07/31 04:42:36;;;;;;;20.00;9.18;;;15.00;99.90;;;;;;5122858;27;20054;-83
2021/07/31 04:45:01;;;;;;;16.00;9.38;;;15.10;99.90;;;;;;5115073;27;20473;-83
2021/07/31 04:47:27;;;;;;;18.70;8.57;;;15.10;99.90;;;;;;5138078;27;20051;-81
2021/07/31 04:49:53;;;;;;;13.63;8.52;;;15.00;99.90;;;;;;5120155;27;20421;-84
2021/07/31 04:52:19;;;;;;;;;;;15.10;99.90;;;;;;5135351;27;20119;-84
2021/07/31 04:54:44;;;;;;;15.23;8.90;;;15.10;99.90;;;;;;5134975;27;19938;-83
2021/07/31 04:57:11;;;;;;;15.02;7.85;;;15.20;99.90;;;;;;5133291;27;20392;-82
2021/07/31 04:59:37;;;;;;;18.95;7.38;;;15.30;99.90;;;;;;5122583;27;20061;-83
2021/07/31 05:02:03;;;;;;;18.95;8.38;;;15.30;99.90;;;;;;5098455;27;20110;-85
2021/07/31 05:04:30;;;;;;;21.75;7.93;;;15.30;99.90;;;;;;5133172;27;20122;-85
2021/07/31 05:06:56;;;;;;;18.10;8.68;;;15.40;99.90;;;;;;5129785;27;20054;-83
2021/07/31 05:09:22;;;;;;;16.65;8.57;;;15.40;99.90;;;;;;5122950;27;20035;-87
2021/07/31 05:11:48;;;;;;;;;;;15.50;99.90;;;;;;5134074;27;20484;-85
2021/07/31 05:14:14;;;;;;;17.80;8.93;;;15.40;99.90;;;;;;5135530;27;19915;-83
2021/07/31 05:16:41;;;;;;;22.30;8.82;;;15.50;99.90;;;;;;5116253;27;20114;-84
2021/07/31 05:19:07;;;;;;;23.65;9.50;;;15.40;99.90;;;;;;5099094;27;20057;-81
2021/07/31 05:21:33;;;;;;;14.43;8.48;;;15.40;99.90;;;;;;5132920;27;20118;-82
2021/07/31 05:23:58;;;;;;;;;;;15.30;99.90;;;;;;5109407;27;20106;-82
2021/07/31 05:26:24;;;;;;;15.25;7.43;;;15.30;99.90;;;;;;5118510;27;19968;-82
2021/07/31 05:28:50;;;;;;;16.13;8.10;;;15.40;99.90;;;;;;5132727;27;20035;-81
2021/07/31 05:31:20;;;;;;;;;;;15.50;99.90;;;;;;5133239;27;20072;-82
2021/07/31 05:33:46;;;;;;;17.50;7.57;;;15.50;99.90;;;;;;5133098;27;20017;-82
2021/07/31 05:36:11;;;;;;;18.10;6.68;;;15.60;99.90;;;;;;5132450;27;20059;-81
2021/07/31 05:38:37;;;;;;;16.83;8.20;;;15.60;99.90;;;;;;5133988;27;20042;-83
2021/07/31 05:41:05;;;;;;;;;;;15.60;99.90;;;;;;5116767;27;20087;-82
2021/07/31 05:43:31;;;;;;;16.65;7.38;;;15.60;99.90;;;;;;5135179;27;19919;-82
2021/07/31 05:45:57;;;;;;;19.10;6.68;;;15.80;99.90;;;;;;5133995;27;20062;-82
2021/07/31 05:48:23;;;;;;;20.55;7.65;;;15.90;99.90;;;;;;5122408;27;20042;-83
2021/07/31 05:50:50;;;;;;;19.67;7.00;;;15.90;99.90;;;;;;5085264;28;20491;-85
2021/07/31 05:53:15;;;;;;;20.92;7.55;;;16.00;99.90;;;;;;5123650;27;20031;-83
2021/07/31 05:55:41;;;;;;;21.55;7.88;;;16.10;99.90;;;;;;5131730;27;20399;-84
2021/07/31 05:58:07;;;;;;;17.95;7.13;;;16.20;99.90;;;;;;5140308;27;20114;-83
2021/07/31 06:00:33;;;;;;;;;;;16.30;99.90;;;;;;5133109;27;20321;-81
2021/07/31 06:03:00;;;;;;;14.60;6.72;;;16.50;99.90;;;;;;5119970;27;19923;-83
2021/07/31 06:05:36;;;;;;;17.13;7.05;;;16.70;99.90;;;;;;5097006;28;20036;-83
2021/07/31 06:08:03;;;;;;;16.10;5.63;;;16.80;99.90;;;;;;5130870;27;20084;-84
2021/07/31 06:10:28;;;;;;;16.63;6.65;;;16.80;99.90;;;;;;5133473;27;20424;-83
2021/07/31 06:12:55;;;;;;;19.33;7.03;;;16.70;99.90;;;;;;5114974;27;20039;-82
2021/07/31 06:15:21;;;;;;;16.92;6.50;;;16.60;99.90;;;;;;5132401;27;20043;-85
2021/07/31 06:17:47;;;;;;;21.08;7.10;;;16.50;99.90;;;;;;5133032;27;20049;-84
2021/07/31 06:20:13;;;;;;;;;;;16.40;99.90;;;;;;5132578;27;20035;-83
2021/07/31 06:22:39;;;;;;;19.63;6.95;;;16.40;99.90;;;;;;5134559;27;19919;-83
2021/07/31 06:25:05;;;;;;;21.25;5.75;;;16.50;99.90;;;;;;5125088;27;20153;-80
2021/07/31 06:27:31;;;;;;;17.08;6.90;;;16.50;99.90;;;;;;5133025;27;20066;-85
2021/07/31 06:29:57;;;;;;;16.42;6.40;;;16.60;99.90;;;;;;5111832;27;20389;-83
2021/07/31 06:32:23;;;;;;;;;;;16.50;99.90;;;;;;5110274;28;20092;-84
2021/07/31 06:34:48;;;;;;;14.38;6.57;;;16.50;99.90;;;;;;5129579;27;20319;-79
2021/07/31 06:37:14;;;;;;;;;;;16.60;99.90;;;;;;5132248;28;20039;-79
2021/07/31 06:39:40;;;;;;;18.80;7.10;;;16.60;99.90;;;;;;5127183;28;19915;-84
2021/07/31 06:42:06;;;;;;;12.85;5.80;;;16.60;99.90;;;;;;5123834;28;20501;-83
2021/07/31 06:44:31;;;;;;;;;;;16.60;99.90;;;;;;5132447;28;20035;-83
2021/07/31 06:46:57;;;;;;;16.83;6.80;;;16.50;99.90;;;;;;5130918;28;19984;-80
2021/07/31 06:49:23;;;;;;;15.25;5.50;;;16.40;99.90;;;;;;5133372;28;20042;-84
2021/07/31 06:51:49;;;;;;;;;;;16.40;99.90;;;;;;5133216;28;20429;-83
2021/07/31 06:54:15;;;;;;;14.18;5.95;;;16.40;99.90;;;;;;5132794;27;19922;-83
2021/07/31 06:56:40;;;;;;;;;;;16.50;99.90;;;;;;5111430;28;20032;-79
2021/07/31 06:59:07;;;;;;;17.77;5.40;;;16.70;99.90;;;;;;5128704;28;20361;-83
2021/07/31 07:01:33;;;;;;;15.75;5.97;;;17.00;99.90;;;;;;5113247;28;20103;-84
2021/07/31 07:03:59;;;;;;;13.50;5.38;;;17.20;99.90;;;;;;5131723;27;20130;-82
2021/07/31 07:06:26;;;;;;;12.82;4.90;;;17.40;99.90;;;;;;5131984;28;20051;-83
2021/07/31 07:08:52;;;;;;;11.65;4.43;;;17.40;99.90;;;;;;5119032;27;20035;-80
2021/07/31 07:11:19;;;;;;;8.07;3.92;;;17.40;99.90;;;;;;5133144;27;20043;-82
2021/07/31 07:13:45;;;;;;;10.02;4.35;;;17.50;99.90;;;;;;5131830;27;20378;-82
2021/07/31 07:16:11;;;;;;;;;;;17.50;99.90;;;;;;5135393;27;20054;-82
2021/07/31 07:18:37;;;;;;;12.10;4.78;;;17.40;99.90;;;;;;5136282;27;19950;-80
2021/07/31 07:21:07;;;;;;;;;;;17.30;99.90;;;;;;5135432;27;20426;-81
2021/07/31 07:23:33;;;;;;;11.63;5.07;;;17.10;99.90;;;;;;5136607;27;19922;-80
2021/07/31 07:25:58;;;;;;;13.73;4.97;;;17.10;99.90;;;;;;5133132;27;20066;-82
2021/07/31 07:28:25;;;;;;;;;;;17.10;99.90;;;;;;5116055;27;20437;-80
2021/07/31 07:30:51;;;;;;;11.70;4.80;;;17.00;99.90;;;;;;5132330;27;19916;-77
2021/07/31 07:33:17;;;;;;;12.00;4.22;;;17.10;99.90;;;;;;5120850;27;20284;-79
2021/07/31 07:35:42;;;;;;;9.70;4.00;;;17.30;99.90;;;;;;5118294;27;20110;-82
2021/07/31 07:38:08;;;;;;;;;;;17.60;99.90;;;;;;5104629;27;20042;-81
2021/07/31 07:40:34;;;;;;;7.65;3.85;;;17.90;99.90;;;;;;5136694;27;19922;-78
2021/07/31 07:43:01;;;;;;;9.43;4.30;;;18.00;99.90;;;;;;5103000;27;20503;-82
2021/07/31 07:45:27;;;;;;;10.23;4.03;;;18.00;99.90;;;;;;5134785;27;20035;-83
2021/07/31 07:47:54;;;;;;;11.95;4.75;;;17.80;99.90;;;;;;5132903;27;20050;-80
2021/07/31 07:50:20;;;;;;;13.63;4.13;;;17.80;99.90;;;;;;5134962;27;20039;-82
2021/07/31 07:52:45;;;;;;;9.20;4.45;;;17.50;99.90;;;;;;5117595;27;20108;-82
2021/07/31 07:55:11;;;;;;;11.18;4.63;;;17.20;99.90;;;;;;5135251;27;20047;-79
2021/07/31 07:57:41;;;;;;;;;;;17.10;99.90;;;;;;5145282;27;20076;-81
2021/07/31 08:00:08;;;;;;;10.20;4.60;;;17.00;99.90;;;;;;5139869;27;19919;-81
2021/07/31 08:02:34;;;;;;;12.05;5.45;;;16.80;99.90;;;;;;5134437;27;20491;-83
2021/07/31 08:05:00;;;;;;;12.00;4.93;;;16.80;99.90;;;;;;5134715;27;20046;-83
2021/07/31 08:07:27;;;;;;;8.38;4.40;;;16.80;99.90;;;;;;5135013;27;20049;-81
2021/07/31 08:09:54;;;;;;;8.27;3.92;;;16.80;99.90;;;;;;5133405;27;20184;-82
2021/07/31 08:12:20;;;;;;;8.38;4.25;;;16.80;99.90;;;;;;5108786;28;20114;-80
2021/07/31 08:14:47;;;;;;;8.85;3.30;;;16.70;99.90;;;;;;5129449;27;20096;-85
2021/07/31 08:17:13;;;;;;;7.97;3.20;;;16.70;99.90;;;;;;5133038;27;20031;-83
2021/07/31 08:19:39;;;;;;;6.40;2.95;;;16.70;99.90;;;;;;5133651;27;20389;-82
2021/07/31 08:22:04;;;;;;;;;;;16.80;99.90;;;;;;5135272;27;20035;-80
2021/07/31 08:24:30;;;;;;;8.00;3.40;;;16.90;99.90;;;;;;5125628;27;19907;-82
2021/07/31 08:26:56;;;;;;;6.85;3.50;;;16.90;99.90;;;;;;5098974;27;20046;-78
2021/07/31 08:29:22;;;;;;;6.85;3.00;;;17.20;99.90;;;;;;5134747;27;20060;-81
2021/07/31 08:31:49;;;;;;;8.15;3.33;;;17.50;99.90;;;;;;5132731;27;20051;-80
2021/07/31 08:34:16;;;;;;;7.35;2.70;;;17.80;99.90;;;;;;5116828;27;20042;-81
2021/07/31 08:36:41;;;;;;;5.95;2.67;;;18.00;99.90;;;;;;5135565;27;20035;-81
2021/07/31 08:39:08;;;;;;;6.28;2.78;;;18.00;99.90;;;;;;5134748;27;20392;-82
2021/07/31 08:41:34;;;;;;;9.40;2.80;;;18.20;99.90;;;;;;5134416;27;20035;-78
2021/07/31 08:44:02;;;;;;;6.28;2.65;;;18.40;99.90;;;;;;5135124;27;20391;-79
2021/07/31 08:46:29;;;;;;;6.93;3.10;;;18.30;99.90;;;;;;5126967;27;20055;-79
2021/07/31 08:48:56;;;;;;;6.25;3.30;;;18.20;99.90;;;;;;5128458;27;20392;-81
2021/07/31 08:51:24;;;;;;;6.85;2.83;;;18.10;99.90;;;;;;5134190;27;20106;-81
2021/07/31 08:53:50;;;;;;;5.75;2.75;;;17.90;99.90;;;;;;5131687;27;20488;-81
2021/07/31 08:56:16;;;;;;;6.20;2.28;;;17.90;99.90;;;;;;5130243;27;20055;-81
2021/07/31 08:58:42;;;;;;;4.97;2.20;;;17.70;99.90;;;;;;5097839;27;20059;-82
2021/07/31 09:01:11;;;;;;;4.50;2.25;;;17.40;99.90;;;;;;5133288;27;20091;-87
2021/07/31 09:04:13;;;;;;;5.85;2.53;;;17.20;99.90;;;;;;5137040;27;20039;-86
2021/07/31 09:06:40;;;;;;;4.60;2.95;;;17.20;99.90;;;;;;5136198;27;20110;-81
2021/07/31 09:09:07;;;;;;;7.75;3.05;;;17.30;99.90;;;;;;5132490;27;20039;-81
2021/07/31 09:11:33;;;;;;;5.43;2.67;;;17.40;99.90;;;;;;5133475;27;20110;-82
2021/07/31 09:14:09;;;;;;;;;;;17.50;99.90;;;;;;5132915;27;20039;-82
2021/07/31 09:16:35;;;;;;;8.10;2.95;;;17.60;99.90;;;;;;5131811;27;19915;-82
2021/07/31 09:19:06;;;;;;;6.57;2.85;;;17.80;99.90;;;;;;5132302;27;20118;-85
2021/07/31 09:21:32;;;;;;;6.97;2.90;;;17.90;99.90;;;;;;5133579;27;20059;-81
2021/07/31 09:23:58;;;;;;;9.00;3.08;;;18.00;99.90;;;;;;5132808;27;20038;-86
2021/07/31 09:26:38;;;;;;;8.68;3.33;;;18.20;99.90;;;;;;5133308;27;20035;-84
2021/07/31 09:29:09;;;;;;;6.50;3.10;;;18.40;99.90;;;;;;5133057;27;20023;-84
2021/07/31 09:31:39;;;;;;;8.65;3.15;;;18.50;99.90;;;;;;5131367;27;20031;-85
2021/07/31 09:34:06;;;;;;;8.07;3.20;;;18.50;99.90;;;;;;5132303;27;20123;-79
2021/07/31 09:36:37;;;;;;;7.97;3.63;;;18.40;99.90;;;;;;5119829;27;20480;-81
2021/07/31 09:39:03;;;;;;;7.85;3.55;;;18.30;99.90;;;;;;5132636;27;20051;-82
2021/07/31 09:41:36;;;;;;;5.80;3.08;;;18.30;99.90;;;;;;5133506;27;20031;-83
2021/07/31 09:44:17;;;;;;;6.50;3.88;;;18.30;99.90;;;;;;5136080;27;20035;-84
2021/07/31 09:46:51;;;;;;;8.77;3.53;;;18.40;99.90;;;;;;5132374;27;20059;-83
2021/07/31 09:49:19;;;;;;;6.78;3.22;;;18.60;99.90;;;;;;5132899;27;20037;-83
2021/07/31 09:51:50;;;;;;;6.95;3.40;;;18.50;99.90;;;;;;5132045;27;20072;-82
2021/07/31 09:54:18;;;;;;;10.18;3.58;;;18.50;99.90;;;;;;5126710;27;20334;-80
2021/07/31 09:56:49;;;;;;;9.52;3.70;;;18.50;99.90;;;;;;5132008;27;20495;-82
2021/07/31 09:59:17;;;;;;;10.35;3.13;;;18.80;99.90;;;;;;5117436;27;20478;-82
2021/07/31 10:02:03;;;;;;;7.95;3.70;;;19.00;99.90;;;;;;5123108;27;20392;-81
2021/07/31 10:04:32;;;;;;;9.55;3.20;;;19.20;99.90;;;;;;5133866;27;20053;-79
2021/07/31 10:07:02;;;;;;;7.63;3.42;;;19.30;99.90;;;;;;5128739;27;20039;-79
2021/07/31 10:09:31;;;;;;;10.60;3.45;;;19.40;99.90;;;;;;5122266;27;20046;-82
2021/07/31 10:11:57;;;;;;;8.27;3.50;;;19.30;99.90;;;;;;5133422;27;20507;-82
2021/07/31 10:14:23;;;;;;;8.73;4.35;;;19.30;99.90;;;;;;5131853;27;20062;-81
2021/07/31 10:16:51;;;;;;;8.77;3.53;;;19.40;99.90;;;;;;5130522;27;20063;-80
2021/07/31 10:19:18;;;;;;;7.43;3.30;;;19.60;99.90;;;;;;5131153;27;20043;-80
2021/07/31 10:21:52;;;;;;;10.40;3.55;;;19.70;99.90;;;;;;5114244;27;20036;-84
2021/07/31 10:24:19;;;;;;;10.40;3.22;;;19.70;99.90;;;;;;5132001;27;20559;-82
2021/07/31 10:27:21;;;;;;;11.07;3.30;;;19.60;99.90;;;;;;5132650;27;20046;-79
2021/07/31 10:29:52;;;;;;;7.13;3.45;;;19.60;99.90;;;;;;5068951;28;20048;-79
2021/07/31 10:32:35;;;;;;;8.05;3.17;;;19.60;99.90;;;;;;5108555;27;20071;-79
2021/07/31 10:35:05;;;;;;;12.25;3.63;;;19.70;99.90;;;;;;5118787;27;20043;-79
2021/07/31 10:37:31;;;;;;;9.35;3.20;;;19.80;99.90;;;;;;5127938;27;20479;-81
2021/07/31 10:39:57;;;;;;;8.85;3.03;;;19.80;99.90;;;;;;5132585;27;20031;-78
2021/07/31 10:42:24;;;;;;;7.35;3.03;;;20.10;99.90;;;;;;5132512;27;20429;-78
2021/07/31 10:45:29;;;;;;;10.75;3.15;;;20.20;99.90;;;;;;5132981;27;20035;-79
2021/07/31 10:47:56;;;;;;;7.95;3.53;;;20.40;99.90;;;;;;5130295;28;20051;-77
2021/07/31 10:50:28;;;;;;;8.23;3.22;;;20.60;99.90;;;;;;5132695;27;20096;-79
2021/07/31 10:53:04;;;;;;;7.28;3.10;;;20.80;99.90;;;;;;5135496;27;20035;-81
2021/07/31 10:55:36;;;;;;;6.03;3.15;;;20.80;99.90;;;;;;5131783;27;20437;-78
2021/07/31 10:58:15;;;;;;;9.68;3.40;;;20.80;99.90;;;;;;5128507;27;20031;-78
2021/07/31 11:00:52;;;;;;;6.70;3.45;;;20.80;99.90;;;;;;5138101;27;20027;-81
2021/07/31 11:03:20;;;;;;;7.13;3.45;;;20.80;99.90;;;;;;5131734;27;20195;-80
2021/07/31 11:05:49;;;;;;;6.50;3.47;;;20.80;99.90;;;;;;5128678;27;20134;-79
2021/07/31 11:08:19;;;;;;;7.18;3.20;;;20.80;99.90;;;;;;5121829;27;20055;-80
2021/07/31 11:10:50;;;;;;;6.50;3.10;;;21.00;99.90;;;;;;5124470;27;20039;-81
2021/07/31 11:13:21;;;;;;;7.05;3.28;;;21.30;99.90;;;;;;5118139;27;20427;-79
2021/07/31 11:16:13;;;;;;;7.10;3.20;;;21.20;99.90;;;;;;5120467;27;20066;-79
2021/07/31 11:18:44;;;;;;;5.35;2.78;;;20.90;99.90;;;;;;5110130;27;20492;-82
2021/07/31 11:21:11;;;;;;;5.70;2.80;;;20.60;99.90;;;;;;5120481;27;20032;-82
2021/07/31 11:23:44;;;;;;;5.97;2.88;;;20.50;99.90;;;;;;5121928;27;20480;-81
2021/07/31 11:26:11;;;;;;;5.75;3.10;;;20.50;99.90;;;;;;5128947;27;20463;-82
2021/07/31 11:28:36;;;;;;;3.55;2.67;;;20.80;99.90;;;;;;5125220;27;20050;-80
2021/07/31 11:31:16;;;;;;;5.22;3.20;;;20.90;99.90;;;;;;5137245;27;20407;-82
2021/07/31 11:33:41;;;;;;;8.77;3.38;;;21.20;99.90;;;;;;5130615;27;20114;-82
2021/07/31 11:36:13;;;;;;;6.45;3.60;;;21.50;99.90;;;;;;5129477;27;20564;-82
2021/07/31 11:38:40;;;;;;;5.47;3.17;;;21.70;99.90;;;;;;5114456;27;20352;-79
2021/07/31 11:41:13;;;;;;;6.80;3.78;;;21.90;99.90;;;;;;5115376;27;20115;-78
2021/07/31 11:43:55;;;;;;;6.32;3.78;;;22.00;99.90;;;;;;5121717;27;20086;-80
2021/07/31 11:46:44;;;;;;;5.68;3.25;;;21.90;99.90;;;;;;5118654;27;20055;-80
2021/07/31 11:49:24;;;;;;;7.38;3.60;;;21.50;99.90;;;;;;5119406;27;20042;-80
2021/07/31 11:51:55;;;;;;;5.40;3.13;;;21.20;99.90;;;;;;5112632;28;20039;-80
2021/07/31 11:54:22;;;;;;;3.85;2.72;;;21.40;99.90;;;;;;5130098;27;20066;-78
2021/07/31 11:56:50;;;;;;;5.80;2.95;;;21.50;99.90;;;;;;5124625;27;20448;-83
2021/07/31 11:59:28;;;;;;;5.18;2.58;;;21.50;99.90;;;;;;5117576;27;20035;-83
2021/07/31 12:01:57;;;;;;;4.35;2.42;;;21.40;99.90;;;;;;5128299;27;20133;-81
2021/07/31 12:04:51;;;;;;;4.85;2.40;;;21.30;99.90;;;;;;5115214;27;20050;-82
2021/07/31 12:07:18;;;;;;;4.28;2.42;;;21.30;99.90;;;;;;5121142;27;20027;-77
2021/07/31 12:10:00;;;;;;;7.47;2.70;;;21.40;99.90;;;;;;5128544;27;20035;-81
2021/07/31 12:12:36;;;;;;;5.68;2.40;;;21.30;99.90;;;;;;5134421;27;20043;-79
2021/07/31 12:15:21;;;;;;;4.43;2.83;;;21.00;99.90;;;;;;5131824;27;20736;-81
2021/07/31 12:17:56;;;;;;;6.03;2.78;;;20.80;99.90;;;;;;5129867;27;20122;-78
2021/07/31 12:20:32;;;;;;;7.38;3.10;;;20.90;99.90;;;;;;5115733;27;20164;-80
2021/07/31 12:22:58;;;;;;;6.43;2.80;;;21.10;99.90;;;;;;5131811;27;20117;-81
2021/07/31 12:25:24;;;;;;;5.20;2.85;;;21.20;99.90;;;;;;5120499;27;20109;-78
2021/07/31 12:28:06;;;;;;;5.05;2.53;;;21.50;99.90;;;;;;5127134;27;20385;-77
2021/07/31 12:30:35;;;;;;;6.18;2.80;;;21.70;99.90;;;;;;5121777;27;20119;-82
2021/07/31 12:33:13;;;;;;;6.35;2.90;;;21.80;99.90;;;;;;5104519;27;20051;-79
2021/07/31 12:35:50;;;;;;;5.07;2.67;;;21.70;99.90;;;;;;5124329;27;20034;-82
2021/07/31 12:38:22;;;;;;;5.38;2.90;;;21.10;99.90;;;;;;5117320;27;20046;-84
2021/07/31 12:40:54;;;;;;;5.88;3.28;;;20.40;99.90;;;;;;5116622;27;20047;-80
2021/07/31 12:43:21;;;;;;;6.53;4.00;;;19.90;99.90;;;;;;5125479;27;20489;-82
2021/07/31 12:45:50;;;;;;;11.70;4.28;;;19.50;99.90;;;;;;5130135;27;20396;-85
2021/07/31 12:48:16;;;;;;;5.95;3.97;;;19.30;99.90;;;;;;5129343;27;20035;-81
2021/07/31 12:50:43;;;;;;;8.35;4.47;;;19.10;99.90;;;;;;5134895;27;20512;-82
2021/07/31 12:53:12;;;;;;;8.45;4.38;;;19.00;99.90;;;;;;5133817;27;20400;-81
2021/07/31 12:55:39;;;;;;;9.70;4.70;;;18.80;99.90;;;;;;5133663;27;20047;-81